createdAt,value
2018-07-11T00:00:35.295Z,16.5
2018-07-11T00:05:15.331Z,16.5
2018-07-11T00:10:36.088Z,16.4
2018-07-11T00:20:07.837Z,16.3
2018-07-11T00:25:28.471Z,16.2
2018-07-11T00:30:10.456Z,16.1
2018-07-11T00:35:18.510Z,16
2018-07-11T00:40:07.427Z,15.9
2018-07-11T00:45:02.797Z,16
2018-07-11T00:50:05.748Z,15.8
2018-07-11T00:55:07.629Z,15.7
2018-07-11T01:00:13.135Z,15.6
2018-07-11T01:05:02.493Z,15.5
2018-07-11T01:10:17.582Z,15.4
2018-07-11T01:15:28.076Z,2.5
2018-07-11T01:20:15.200Z,15.2
2018-07-11T01:25:02.990Z,15.2
2018-07-11T01:35:07.767Z,14.9
2018-07-11T01:40:02.613Z,14.9
2018-07-11T01:45:05.555Z,14.9
2018-07-11T01:50:13.120Z,14.9
2018-07-11T01:55:20.171Z,15
2018-07-11T02:00:07.555Z,15
2018-07-11T02:05:08.068Z,15.1
2018-07-11T02:10:07.917Z,15.1
2018-07-11T02:15:05.806Z,15.2
2018-07-11T02:20:08.356Z,15.1
2018-07-11T02:25:02.601Z,15.1
2018-07-11T02:30:25.774Z,15.2
2018-07-11T02:35:03.125Z,15.2
2018-07-11T02:40:03.141Z,15.3
2018-07-11T02:50:07.752Z,15.2
2018-07-11T02:55:08.156Z,15
2018-07-11T03:00:02.828Z,15
2018-07-11T03:05:03.238Z,15
2018-07-11T03:10:10.586Z,14.8
2018-07-11T03:15:04.937Z,14.8
2018-07-11T03:20:04.905Z,14.8
2018-07-11T03:25:02.920Z,14.8
2018-07-11T03:30:10.958Z,14.9
2018-07-11T03:35:30.493Z,14.9
2018-07-11T03:40:10.895Z,14.9
2018-07-11T03:45:07.767Z,15
2018-07-11T03:50:10.706Z,15
2018-07-11T03:55:07.473Z,14.9
2018-07-11T04:00:30.700Z,14.9
2018-07-11T04:05:08.088Z,14.9
2018-07-11T04:10:05.500Z,14.9
2018-07-11T04:15:05.019Z,14.9
2018-07-11T04:20:05.014Z,14.8
2018-07-11T04:25:23.105Z,14.9
2018-07-11T04:30:02.435Z,14.9
2018-07-11T04:35:02.921Z,14.9
2018-07-11T04:40:02.771Z,14.8
2018-07-11T04:45:03.123Z,14.8
2018-07-11T04:50:02.478Z,14.9
2018-07-11T04:55:05.536Z,15.1
2018-07-11T05:00:10.474Z,15.2
2018-07-11T05:05:10.905Z,15.3
2018-07-11T05:10:10.349Z,15.3
2018-07-11T05:15:15.783Z,15.4
2018-07-11T05:20:07.549Z,15.4
2018-07-11T05:25:07.917Z,15.5
2018-07-11T05:30:08.346Z,15.5
2018-07-11T05:35:05.172Z,15.7
2018-07-11T05:40:03.021Z,15.7
2018-07-11T05:45:07.568Z,15.7
2018-07-11T05:50:18.450Z,15.7
2018-07-11T05:55:10.305Z,15.8
2018-07-11T06:00:02.863Z,15.8
2018-07-11T06:05:03.082Z,14.2
2018-07-11T06:10:08.021Z,15.8
2018-07-11T06:15:28.596Z,15.9
2018-07-11T06:20:03.183Z,15.9
2018-07-11T06:25:10.088Z,16.1
2018-07-11T06:30:02.426Z,16.1
2018-07-11T06:35:07.921Z,16.1
2018-07-11T06:40:07.748Z,16.3
2018-07-11T06:45:13.263Z,16.5
2018-07-11T06:50:02.642Z,16.5
2018-07-11T06:55:03.004Z,16.6
2018-07-11T07:00:04.976Z,16.8
2018-07-11T07:05:15.484Z,16.9
2018-07-11T07:10:13.498Z,17
2018-07-11T07:15:05.313Z,17.2
2018-07-11T07:20:05.301Z,17.4
2018-07-11T07:25:05.669Z,17.6
2018-07-11T07:30:03.075Z,17.6
2018-07-11T07:35:10.054Z,17.8
2018-07-11T07:40:05.542Z,18
2018-07-11T07:45:18.454Z,18.1
2018-07-11T07:50:07.898Z,18.4
2018-07-11T07:55:03.327Z,18.4
2018-07-11T08:00:07.803Z,18.9
2018-07-11T08:05:10.690Z,19.1
2018-07-11T08:10:02.562Z,19.1
2018-07-11T08:15:33.267Z,19.5
2018-07-11T08:20:05.253Z,19.5
2018-07-11T08:25:20.747Z,19.5
2018-07-11T08:30:15.829Z,19.4
2018-07-11T08:35:05.130Z,19.4
2018-07-11T08:40:13.284Z,19.5
2018-07-11T08:45:10.098Z,19.5
2018-07-11T08:50:10.227Z,19.6
2018-07-11T08:55:08.117Z,19.6
2018-07-11T09:00:05.126Z,19.6
2018-07-11T09:05:25.768Z,19.6
2018-07-11T09:10:07.685Z,19.6
2018-07-11T09:15:08.136Z,19.7
2018-07-11T09:20:07.663Z,19.8
2018-07-11T09:25:10.753Z,19.8
2018-07-11T09:30:03.120Z,19.8
2018-07-11T09:35:07.607Z,19.9
2018-07-11T09:40:35.284Z,20
2018-07-11T09:45:02.640Z,20
2018-07-11T09:50:05.581Z,20.2
2018-07-11T09:55:22.994Z,20.3
2018-07-11T10:00:08.357Z,20.5
2018-07-11T10:05:20.427Z,20.6
2018-07-11T10:10:08.401Z,20.6
2018-07-11T10:15:02.683Z,20.6
2018-07-11T10:20:03.098Z,20.7
2018-07-11T10:25:12.579Z,20.9
2018-07-11T10:30:10.575Z,21
2018-07-11T10:35:15.111Z,21
2018-07-11T10:40:05.487Z,21.1
2018-07-11T10:45:17.730Z,21.2
2018-07-11T10:50:18.228Z,21.3
2018-07-11T10:55:32.871Z,21.4
2018-07-11T11:00:03.230Z,21.5
2018-07-11T11:05:03.296Z,21.7
2018-07-11T11:10:08.268Z,21.9
2018-07-11T11:15:02.649Z,21.9
2018-07-11T11:20:38.516Z,22.3
2018-07-11T11:25:05.554Z,22.5
2018-07-11T11:30:15.634Z,22.8
2018-07-11T11:35:07.404Z,22.9
2018-07-11T11:40:03.361Z,23
2018-07-11T11:45:07.449Z,23.3
2018-07-11T11:50:18.057Z,23.5
2018-07-11T11:55:08.368Z,23.5
2018-07-11T12:00:02.886Z,23.5
2018-07-11T12:05:13.332Z,23.1
2018-07-11T12:10:15.911Z,23.2
2018-07-11T12:15:05.247Z,23.2
2018-07-11T12:20:10.314Z,23.1
2018-07-11T12:25:05.812Z,22.9
2018-07-11T12:30:10.835Z,22.7
2018-07-11T12:35:02.771Z,22.7
2018-07-11T12:40:08.203Z,22.5
2018-07-11T12:45:02.546Z,22.4
2018-07-11T12:50:08.008Z,22.4
2018-07-11T12:55:04.956Z,22.3
2018-07-11T13:00:02.352Z,22.2
2018-07-11T13:05:02.893Z,22.2
2018-07-11T13:10:05.325Z,22.1
2018-07-11T13:15:05.739Z,22.1
2018-07-11T13:20:02.820Z,22
2018-07-11T13:25:18.362Z,21.8
2018-07-11T13:30:10.357Z,22.1
2018-07-11T13:35:10.871Z,22.4
2018-07-11T13:40:03.078Z,22.4
2018-07-11T13:45:17.513Z,22.7
2018-07-11T13:50:13.233Z,22.9
2018-07-11T13:55:07.562Z,23
2018-07-11T14:00:30.911Z,24.2
2018-07-11T14:05:15.943Z,27.7
2018-07-11T14:10:05.370Z,30.5
2018-07-11T14:15:15.054Z,31
2018-07-11T14:20:05.224Z,32.1
2018-07-11T14:25:10.935Z,32.2
2018-07-11T14:30:07.457Z,32.3
2018-07-11T14:35:08.084Z,32.5
2018-07-11T14:40:18.285Z,32.3
2018-07-11T14:45:10.306Z,32.1
2018-07-11T14:50:07.842Z,30.5
2018-07-11T14:55:02.389Z,30.5
2018-07-11T15:00:02.863Z,28.9
2018-07-11T15:05:02.350Z,28.1
2018-07-11T15:10:03.053Z,28.4
2018-07-11T15:15:22.874Z,27.4
2018-07-11T15:20:02.421Z,27.4
2018-07-11T15:25:05.475Z,26.2
2018-07-11T15:30:08.010Z,25.9
2018-07-11T15:35:05.017Z,25.5
2018-07-11T15:40:05.500Z,25.3
2018-07-11T15:45:04.947Z,24.9
2018-07-11T15:50:04.969Z,24.6
2018-07-11T15:55:07.956Z,24.4
2018-07-11T16:00:04.965Z,24.3
2018-07-11T16:05:02.853Z,24.3
2018-07-11T16:10:05.287Z,24.3
2018-07-11T16:15:15.843Z,24.5
2018-07-11T16:20:04.928Z,24.4
2018-07-11T16:25:10.437Z,24.8
2018-07-11T16:30:08.025Z,24.9
2018-07-11T16:35:02.355Z,24.9
2018-07-11T16:40:05.825Z,25.2
2018-07-11T16:45:28.225Z,24.7
2018-07-11T16:50:05.152Z,24.3
2018-07-11T16:55:05.596Z,24.2
2018-07-11T17:00:10.837Z,23.9
2018-07-11T17:05:12.617Z,23.9
2018-07-11T17:10:25.235Z,24
2018-07-11T17:15:02.593Z,24
2018-07-11T17:20:05.598Z,23.7
2018-07-11T17:25:10.139Z,23.5
2018-07-11T17:30:20.212Z,23.3
2018-07-11T17:35:10.549Z,23.2
2018-07-11T17:40:04.941Z,22.9
2018-07-11T17:45:02.885Z,22.9
2018-07-11T17:50:05.102Z,22.7
2018-07-11T17:55:08.023Z,22.4
2018-07-11T18:00:12.534Z,22.4
2018-07-11T18:05:10.436Z,22.4
2018-07-11T18:10:05.891Z,22.3
2018-07-11T18:15:02.823Z,22.2
2018-07-11T18:20:07.480Z,22.4
2018-07-11T18:25:23.127Z,22.3
2018-07-11T18:30:10.118Z,22.1
2018-07-11T18:35:08.098Z,22
2018-07-11T18:40:20.692Z,21.7
2018-07-11T18:45:02.387Z,21.7
2018-07-11T18:50:02.811Z,21.6
2018-07-11T18:55:05.019Z,21.4
2018-07-11T19:00:07.441Z,21.2
2018-07-11T19:05:07.941Z,21.1
2018-07-11T19:10:23.327Z,21.1
2018-07-11T19:15:07.726Z,20.9
2018-07-11T19:20:05.381Z,20.8
2018-07-11T19:25:10.901Z,20.5
2018-07-11T19:30:22.740Z,20.4
2018-07-11T19:35:15.791Z,20.3
2018-07-11T19:40:07.703Z,20.2
2018-07-11T19:45:08.323Z,20.2
2018-07-11T19:50:05.261Z,20
2018-07-11T19:55:08.242Z,19.9
2018-07-11T20:00:05.789Z,19.7
2018-07-11T20:05:02.685Z,19.7
2018-07-11T20:10:02.566Z,19.7
2018-07-11T20:15:08.103Z,19.6
2018-07-11T20:20:05.351Z,19.5
2018-07-11T20:30:04.988Z,19.4
2018-07-11T20:35:20.538Z,19.4
2018-07-11T20:40:02.893Z,19.4
2018-07-11T20:45:03.259Z,19.4
2018-07-11T20:50:02.863Z,19.4
2018-07-11T20:55:10.826Z,19.3
2018-07-11T21:00:10.833Z,19.2
2018-07-11T21:05:05.179Z,19.1
2018-07-11T21:10:03.054Z,19.1
2018-07-11T21:15:05.019Z,19
2018-07-11T21:20:07.527Z,19
2018-07-11T21:25:23.119Z,18.9
2018-07-11T21:30:20.179Z,18.8
2018-07-11T21:35:05.406Z,18.6
2018-07-11T21:40:05.819Z,18.4
2018-07-11T21:45:07.787Z,18.2
2018-07-11T21:50:25.927Z,18.1
2018-07-11T21:55:05.859Z,18.1
2018-07-11T22:00:08.275Z,18
2018-07-11T22:05:02.830Z,18
2018-07-11T22:10:05.228Z,17.6
2018-07-11T22:15:03.090Z,17.6
2018-07-11T22:20:02.990Z,17.6
2018-07-11T22:25:04.930Z,17.3
2018-07-11T22:30:03.305Z,17.3
2018-07-11T22:35:10.315Z,17.1
2018-07-11T22:45:32.698Z,17
2018-07-11T22:50:10.745Z,16.9
2018-07-11T22:55:15.126Z,16.9
2018-07-11T23:00:10.143Z,16.9
2018-07-11T23:05:18.099Z,16.8
2018-07-11T23:10:05.739Z,16.8
2018-07-11T23:15:32.994Z,16.9
2018-07-11T23:20:04.917Z,16.9
2018-07-11T23:25:07.872Z,16.8
2018-07-11T23:30:05.789Z,16.8
2018-07-11T23:35:12.765Z,16.7
2018-07-11T23:40:30.377Z,16.7
2018-07-11T23:45:02.752Z,16.8
2018-07-11T23:50:05.707Z,16.7
2018-07-11T23:55:37.936Z,16.7
